createdAt,value
2022-10-12T01:19:03.054Z,15.33
2022-10-12T01:29:25.952Z,15.14
2022-10-12T01:39:52.197Z,14.97
2022-10-12T01:49:54.527Z,15.10
2022-10-12T02:00:04.644Z,15.28
2022-10-12T02:10:11.092Z,15.26
2022-10-12T02:20:16.452Z,15.10
2022-10-12T02:30:21.219Z,15.00
2022-10-12T02:40:37.777Z,15.31
2022-10-12T02:50:39.558Z,15.73
2022-10-12T03:00:41.185Z,15.93
2022-10-12T03:10:42.636Z,16.15
2022-10-12T03:20:48.512Z,16.39
2022-10-12T03:30:51.163Z,16.49
2022-10-12T03:40:52.698Z,16.50
2022-10-12T03:50:54.127Z,16.59
2022-10-12T04:00:55.822Z,16.47
2022-10-12T04:10:57.542Z,16.40
2022-10-12T04:21:00.199Z,16.69
2022-10-12T04:31:02.006Z,16.79
2022-10-12T04:41:03.769Z,16.89
2022-10-12T04:51:06.032Z,16.89
2022-10-12T05:01:07.607Z,16.89
2022-10-12T05:11:09.157Z,16.83
2022-10-12T05:21:11.345Z,16.82
2022-10-12T05:31:13.835Z,16.88
2022-10-12T05:41:15.441Z,16.96
2022-10-12T05:51:17.001Z,17.04
2022-10-12T06:01:18.455Z,17.03
2022-10-12T06:11:20.497Z,17.16
2022-10-12T06:21:33.060Z,17.62
2022-10-12T06:31:35.329Z,17.97
2022-10-12T06:41:37.812Z,18.19
2022-10-12T06:51:43.022Z,18.47
2022-10-12T07:01:44.751Z,18.52
2022-10-12T07:11:46.253Z,18.88
2022-10-12T07:21:47.733Z,19.17
2022-10-12T07:31:51.966Z,19.58
2022-10-12T07:41:54.186Z,20.56
2022-10-12T07:51:55.715Z,20.78
2022-10-12T08:01:58.643Z,21.16
2022-10-12T08:12:00.224Z,21.40
2022-10-12T08:22:02.141Z,21.27
2022-10-12T08:32:03.770Z,21.68
2022-10-12T08:42:25.919Z,21.93
2022-10-12T08:52:38.732Z,21.86
2022-10-12T09:02:50.636Z,22.04
2022-10-12T09:13:10.598Z,21.88
2022-10-12T09:23:25.554Z,22.24
2022-10-12T09:33:35.436Z,21.77
2022-10-12T09:43:39.739Z,21.42
2022-10-12T09:53:48.573Z,21.66
2022-10-12T10:04:09.485Z,22.25
2022-10-12T10:14:15.250Z,22.00
2022-10-12T10:24:30.958Z,21.63
2022-10-12T10:34:32.410Z,22.14
2022-10-12T10:44:36.478Z,22.52
2022-10-12T10:54:38.693Z,22.48
2022-10-12T11:04:45.910Z,22.62
2022-10-12T11:14:55.297Z,22.66
2022-10-12T11:25:14.599Z,22.24
2022-10-12T11:35:28.111Z,22.69
2022-10-12T11:45:40.817Z,22.09
2022-10-12T11:55:51.014Z,22.28
2022-10-12T12:05:52.476Z,22.39
2022-10-12T12:15:53.868Z,22.47
2022-10-12T12:26:16.934Z,22.51
2022-10-12T12:36:29.238Z,22.16
2022-10-12T12:46:55.732Z,22.19
2022-10-12T12:57:03.582Z,21.93
2022-10-12T13:07:26.827Z,22.27
2022-10-12T13:18:00.169Z,22.75
2022-10-12T13:28:06.561Z,23.16
2022-10-12T13:38:14.176Z,22.77
2022-10-12T13:48:39.895Z,22.60
2022-10-12T13:58:42.776Z,22.38
2022-10-12T14:08:44.341Z,22.24
2022-10-12T14:18:47.671Z,22.14
2022-10-12T14:28:49.319Z,21.81
2022-10-12T14:38:51.531Z,21.28
2022-10-12T14:48:53.039Z,21.16
2022-10-12T14:58:54.642Z,20.69
2022-10-12T15:08:56.113Z,20.34
2022-10-12T15:18:57.568Z,20.32
2022-10-12T15:28:59.599Z,20.10
2022-10-12T15:39:01.044Z,19.74
2022-10-12T15:49:02.606Z,19.62
2022-10-12T15:59:04.162Z,19.11
2022-10-12T16:09:05.611Z,18.55
2022-10-12T16:19:07.546Z,18.42
2022-10-12T16:29:09.079Z,18.36
2022-10-12T16:39:10.743Z,18.38
2022-10-12T16:49:12.187Z,18.61
2022-10-12T16:59:13.638Z,18.64
2022-10-12T17:09:15.664Z,18.52
2022-10-12T17:19:28.542Z,18.01
2022-10-12T17:29:31.520Z,17.42
2022-10-12T17:39:36.502Z,17.09
2022-10-12T17:49:37.937Z,16.92
2022-10-12T17:59:39.529Z,16.69
2022-10-12T18:09:41.309Z,16.54
2022-10-12T18:19:42.784Z,16.37
2022-10-12T18:29:44.355Z,16.26
2022-10-12T18:39:45.853Z,16.66
2022-10-12T18:49:51.429Z,17.05
2022-10-12T18:59:55.919Z,17.22
2022-10-12T19:09:57.362Z,17.29
2022-10-12T19:19:59.466Z,17.45
2022-10-12T19:30:00.977Z,17.51
2022-10-12T19:40:07.454Z,17.58
2022-10-12T19:50:10.739Z,17.52
2022-10-12T20:00:13.098Z,17.12
2022-10-12T20:10:14.564Z,16.98
2022-10-12T20:20:19.084Z,16.91
2022-10-12T20:30:21.803Z,16.59
2022-10-12T20:40:23.905Z,16.37
2022-10-12T20:50:26.974Z,16.16
2022-10-12T21:00:31.541Z,15.76
2022-10-12T21:10:36.760Z,15.42
2022-10-12T21:20:40.811Z,15.29
2022-10-12T21:30:42.356Z,15.03
2022-10-12T21:40:44.294Z,14.85
2022-10-12T21:50:45.825Z,14.63
2022-10-12T22:00:49.712Z,14.57
2022-10-12T22:10:51.685Z,14.41
2022-10-12T22:20:53.122Z,14.22
2022-10-12T22:30:54.671Z,14.05
2022-10-12T22:41:13.611Z,13.99
2022-10-12T22:51:35.525Z,13.72
2022-10-12T23:01:37.048Z,13.54
2022-10-12T23:11:38.493Z,13.39
2022-10-12T23:21:39.996Z,13.29
2022-10-12T23:31:41.619Z,13.29
2022-10-12T23:41:43.116Z,13.15
2022-10-12T23:51:44.547Z,12.99
